sensor_id;sensor_type;location;lat;lon;timestamp;temperature;humidity
52621;DHT22;38515;53.160;6.990;2024-01-07T00:02:09;-0.50;1.00
52621;DHT22;38515;53.160;6.990;2024-01-07T00:04:35;0.20;1.00
52621;DHT22;38515;53.160;6.990;2024-01-07T00:07:00;-0.50;99.90
52621;DHT22;38515;53.160;6.990;2024-01-07T00:09:26;0.10;1.00
52621;DHT22;38515;53.160;6.990;2024-01-07T00:11:52;0.00;99.90
52621;DHT22;38515;53.160;6.990;2024-01-07T00:14:17;-1.00;99.90
52621;DHT22;38515;53.160;6.990;2024-01-07T00:16:43;-0.50;99.90
52621;DHT22;38515;53.160;6.990;2024-01-07T00:19:09;-0.50;99.90
52621;DHT22;38515;53.160;6.990;2024-01-07T00:21:34;-1.30;99.90
52621;DHT22;38515;53.160;6.990;2024-01-07T00:24:00;-0.40;99.90
52621;DHT22;38515;53.160;6.990;2024-01-07T00:26:26;-0.40;99.90
52621;DHT22;38515;53.160;6.990;2024-01-07T00:28:51;0.00;99.90
52621;DHT22;38515;53.160;6.990;2024-01-07T00:31:17;-0.20;99.90
52621;DHT22;38515;53.160;6.990;2024-01-07T00:33:43;-0.30;99.90
52621;DHT22;38515;53.160;6.990;2024-01-07T00:36:09;-0.50;99.90
52621;DHT22;38515;53.160;6.990;2024-01-07T00:38:35;-0.90;99.90
52621;DHT22;38515;53.160;6.990;2024-01-07T00:41:00;-0.50;99.90
52621;DHT22;38515;53.160;6.990;2024-01-07T00:43:26;0.50;99.90
52621;DHT22;38515;53.160;6.990;2024-01-07T00:45:51;-0.60;99.90
52621;DHT22;38515;53.160;6.990;2024-01-07T00:48:17;-0.50;99.90
52621;DHT22;38515;53.160;6.990;2024-01-07T00:50:43;-0.50;99.90
52621;DHT22;38515;53.160;6.990;2024-01-07T00:53:09;-0.50;99.90
52621;DHT22;38515;53.160;6.990;2024-01-07T00:55:35;-0.50;99.90
52621;DHT22;38515;53.160;6.990;2024-01-07T00:58:01;-0.80;99.90
52621;DHT22;38515;53.160;6.990;2024-01-07T01:00:27;-0.50;99.90
52621;DHT22;38515;53.160;6.990;2024-01-07T01:02:54;-1.40;99.90
52621;DHT22;38515;53.160;6.990;2024-01-07T01:05:19;-0.60;99.90
52621;DHT22;38515;53.160;6.990;2024-01-07T01:07:45;0.30;99.90
52621;DHT22;38515;53.160;6.990;2024-01-07T01:10:11;-0.60;99.90
52621;DHT22;38515;53.160;6.990;2024-01-07T01:12:36;-1.90;99.90
52621;DHT22;38515;53.160;6.990;2024-01-07T01:15:02;-0.60;99.90
52621;DHT22;38515;53.160;6.990;2024-01-07T01:17:28;-0.50;99.90
52621;DHT22;38515;53.160;6.990;2024-01-07T01:19:53;-0.60;99.90
52621;DHT22;38515;53.160;6.990;2024-01-07T01:22:19;-0.60;99.90
52621;DHT22;38515;53.160;6.990;2024-01-07T01:24:45;-0.70;99.90
52621;DHT22;38515;53.160;6.990;2024-01-07T01:27:12;-0.70;99.90
52621;DHT22;38515;53.160;6.990;2024-01-07T01:29:39;-0.60;99.90
52621;DHT22;38515;53.160;6.990;2024-01-07T01:32:05;-0.60;99.90
52621;DHT22;38515;53.160;6.990;2024-01-07T01:34:31;-0.70;99.90
52621;DHT22;38515;53.160;6.990;2024-01-07T01:36:57;-0.10;99.90
52621;DHT22;38515;53.160;6.990;2024-01-07T01:39:23;0.00;99.90
52621;DHT22;38515;53.160;6.990;2024-01-07T01:41:48;-1.00;99.90
52621;DHT22;38515;53.160;6.990;2024-01-07T01:44:14;-0.70;1.00
52621;DHT22;38515;53.160;6.990;2024-01-07T01:46:40;-0.10;99.90
52621;DHT22;38515;53.160;6.990;2024-01-07T01:49:07;-0.70;99.90
52621;DHT22;38515;53.160;6.990;2024-01-07T01:51:33;-1.90;1.00
52621;DHT22;38515;53.160;6.990;2024-01-07T01:53:59;-0.90;99.90
52621;DHT22;38515;53.160;6.990;2024-01-07T01:56:27;-0.60;1.00
52621;DHT22;38515;53.160;6.990;2024-01-07T01:58:53;-0.70;99.90
52621;DHT22;38515;53.160;6.990;2024-01-07T02:01:19;0.70;99.90
52621;DHT22;38515;53.160;6.990;2024-01-07T02:03:44;-0.60;99.90
52621;DHT22;38515;53.160;6.990;2024-01-07T02:06:10;-0.70;99.90
52621;DHT22;38515;53.160;6.990;2024-01-07T02:08:38;-0.70;99.90
52621;DHT22;38515;53.160;6.990;2024-01-07T02:11:20;-0.70;99.90
52621;DHT22;38515;53.160;6.990;2024-01-07T02:13:46;-0.80;99.90
52621;DHT22;38515;53.160;6.990;2024-01-07T02:16:12;-0.70;97.80
52621;DHT22;38515;53.160;6.990;2024-01-07T02:18:41;-0.30;99.80
52621;DHT22;38515;53.160;6.990;2024-01-07T02:21:08;-0.80;91.10
52621;DHT22;38515;53.160;6.990;2024-01-07T02:23:34;-0.80;80.50
52621;DHT22;38515;53.160;6.990;2024-01-07T02:25:59;-1.40;73.10
52621;DHT22;38515;53.160;6.990;2024-01-07T02:28:25;0.10;21.30
52621;DHT22;38515;53.160;6.990;2024-01-07T02:30:50;-0.80;99.90
52621;DHT22;38515;53.160;6.990;2024-01-07T02:33:16;-0.90;4.90
52621;DHT22;38515;53.160;6.990;2024-01-07T02:35:42;-0.80;99.90
52621;DHT22;38515;53.160;6.990;2024-01-07T02:38:07;-0.80;1.00
52621;DHT22;38515;53.160;6.990;2024-01-07T02:40:33;-0.80;1.00
52621;DHT22;38515;53.160;6.990;2024-01-07T02:45:25;-2.10;1.00
52621;DHT22;38515;53.160;6.990;2024-01-07T02:47:50;-0.80;99.90
52621;DHT22;38515;53.160;6.990;2024-01-07T02:50:16;-1.30;99.90
52621;DHT22;38515;53.160;6.990;2024-01-07T02:52:42;-0.40;1.00
52621;DHT22;38515;53.160;6.990;2024-01-07T02:55:08;-0.80;99.90
52621;DHT22;38515;53.160;6.990;2024-01-07T02:57:34;-0.90;99.90
52621;DHT22;38515;53.160;6.990;2024-01-07T03:00:00;-0.90;99.90
52621;DHT22;38515;53.160;6.990;2024-01-07T03:02:25;-0.70;99.90
52621;DHT22;38515;53.160;6.990;2024-01-07T03:04:51;-0.90;99.90
52621;DHT22;38515;53.160;6.990;2024-01-07T03:07:17;-0.90;99.90
52621;DHT22;38515;53.160;6.990;2024-01-07T03:09:42;-0.60;99.90
52621;DHT22;38515;53.160;6.990;2024-01-07T03:12:08;-0.90;96.60
52621;DHT22;38515;53.160;6.990;2024-01-07T03:14:34;0.00;99.90
52621;DHT22;38515;53.160;6.990;2024-01-07T03:16:59;-1.60;99.90
52621;DHT22;38515;53.160;6.990;2024-01-07T03:19:25;-0.40;99.90
52621;DHT22;38515;53.160;6.990;2024-01-07T03:21:51;-0.90;19.10
52621;DHT22;38515;53.160;6.990;2024-01-07T03:24:16;-0.90;99.90
52621;DHT22;38515;53.160;6.990;2024-01-07T03:26:42;-0.90;99.90
52621;DHT22;38515;53.160;6.990;2024-01-07T03:29:08;-0.90;50.10
52621;DHT22;38515;53.160;6.990;2024-01-07T03:31:33;-0.60;99.90
52621;DHT22;38515;53.160;6.990;2024-01-07T03:33:59;-0.90;99.90
52621;DHT22;38515;53.160;6.990;2024-01-07T03:36:25;-0.90;99.90
52621;DHT22;38515;53.160;6.990;2024-01-07T03:38:50;-0.80;99.90
52621;DHT22;38515;53.160;6.990;2024-01-07T03:41:17;0.90;99.90
52621;DHT22;38515;53.160;6.990;2024-01-07T03:43:46;-0.60;99.90
52621;DHT22;38515;53.160;6.990;2024-01-07T03:46:12;-0.80;54.20
52621;DHT22;38515;53.160;6.990;2024-01-07T03:48:39;0.40;81.00
52621;DHT22;38515;53.160;6.990;2024-01-07T03:51:04;-0.30;99.90
52621;DHT22;38515;53.160;6.990;2024-01-07T03:53:30;-0.80;1.00
52621;DHT22;38515;53.160;6.990;2024-01-07T03:55:55;-0.80;1.00
52621;DHT22;38515;53.160;6.990;2024-01-07T03:58:21;0.30;1.00
52621;DHT22;38515;53.160;6.990;2024-01-07T04:00:47;-0.90;99.90
52621;DHT22;38515;53.160;6.990;2024-01-07T04:03:12;-0.90;1.00
52621;DHT22;38515;53.160;6.990;2024-01-07T04:05:38;-0.80;1.00
52621;DHT22;38515;53.160;6.990;2024-01-07T04:08:04;-0.90;1.00
52621;DHT22;38515;53.160;6.990;2024-01-07T04:10:30;-0.90;99.90
52621;DHT22;38515;53.160;6.990;2024-01-07T04:12:55;-0.90;99.90
52621;DHT22;38515;53.160;6.990;2024-01-07T04:15:21;-0.90;99.90
52621;DHT22;38515;53.160;6.990;2024-01-07T04:17:47;-0.90;99.90
52621;DHT22;38515;53.160;6.990;2024-01-07T04:20:13;-0.90;99.90
52621;DHT22;38515;53.160;6.990;2024-01-07T04:22:39;-0.10;99.90
52621;DHT22;38515;53.160;6.990;2024-01-07T04:25:05;0.30;99.90
52621;DHT22;38515;53.160;6.990;2024-01-07T04:27:37;-0.80;99.90
52621;DHT22;38515;53.160;6.990;2024-01-07T04:30:04;-0.90;11.70
52621;DHT22;38515;53.160;6.990;2024-01-07T04:32:30;-0.90;67.50
52621;DHT22;38515;53.160;6.990;2024-01-07T04:34:56;-0.90;80.40
52621;DHT22;38515;53.160;6.990;2024-01-07T04:37:23;-0.90;74.70
52621;DHT22;38515;53.160;6.990;2024-01-07T04:39:49;-0.90;18.70
52621;DHT22;38515;53.160;6.990;2024-01-07T04:42:15;-1.20;1.00
52621;DHT22;38515;53.160;6.990;2024-01-07T04:44:41;-0.90;1.00
52621;DHT22;38515;53.160;6.990;2024-01-07T04:47:24;-1.20;1.00
52621;DHT22;38515;53.160;6.990;2024-01-07T04:49:50;-0.90;99.90
52621;DHT22;38515;53.160;6.990;2024-01-07T04:52:15;-0.90;99.90
52621;DHT22;38515;53.160;6.990;2024-01-07T04:54:41;-0.90;99.90
52621;DHT22;38515;53.160;6.990;2024-01-07T04:57:07;-0.90;99.90
52621;DHT22;38515;53.160;6.990;2024-01-07T04:59:33;-0.90;99.90
52621;DHT22;38515;53.160;6.990;2024-01-07T05:01:58;-0.90;99.90
52621;DHT22;38515;53.160;6.990;2024-01-07T05:04:24;-1.00;99.90
52621;DHT22;38515;53.160;6.990;2024-01-07T05:06:49;-0.90;99.90
52621;DHT22;38515;53.160;6.990;2024-01-07T05:09:15;-0.90;99.90
52621;DHT22;38515;53.160;6.990;2024-01-07T05:11:41;0.40;99.90
52621;DHT22;38515;53.160;6.990;2024-01-07T05:14:07;-0.90;1.00
52621;DHT22;38515;53.160;6.990;2024-01-07T05:16:32;-0.90;1.00
52621;DHT22;38515;53.160;6.990;2024-01-07T05:18:58;-1.00;38.80
52621;DHT22;38515;53.160;6.990;2024-01-07T05:21:24;-0.90;1.00
52621;DHT22;38515;53.160;6.990;2024-01-07T05:23:49;-0.90;1.00
52621;DHT22;38515;53.160;6.990;2024-01-07T05:26:15;-0.90;1.00
52621;DHT22;38515;53.160;6.990;2024-01-07T05:28:41;-0.90;1.00
52621;DHT22;38515;53.160;6.990;2024-01-07T05:31:14;-0.90;1.00
52621;DHT22;38515;53.160;6.990;2024-01-07T05:33:40;-0.90;1.00
52621;DHT22;38515;53.160;6.990;2024-01-07T05:36:06;-0.90;99.90
52621;DHT22;38515;53.160;6.990;2024-01-07T05:38:31;-1.60;99.90
52621;DHT22;38515;53.160;6.990;2024-01-07T05:40:57;-0.90;99.90
52621;DHT22;38515;53.160;6.990;2024-01-07T05:43:23;-0.60;99.90
52621;DHT22;38515;53.160;6.990;2024-01-07T05:45:48;-0.90;40.80
52621;DHT22;38515;53.160;6.990;2024-01-07T05:48:14;-0.90;99.90
52621;DHT22;38515;53.160;6.990;2024-01-07T05:50:40;-0.60;99.90
52621;DHT22;38515;53.160;6.990;2024-01-07T05:53:05;-0.90;99.90
52621;DHT22;38515;53.160;6.990;2024-01-07T05:55:31;-0.90;1.00
52621;DHT22;38515;53.160;6.990;2024-01-07T05:57:56;-0.80;99.90
52621;DHT22;38515;53.160;6.990;2024-01-07T06:00:23;-2.10;99.90
52621;DHT22;38515;53.160;6.990;2024-01-07T06:02:49;1.50;99.90
52621;DHT22;38515;53.160;6.990;2024-01-07T06:05:14;-0.90;99.90
52621;DHT22;38515;53.160;6.990;2024-01-07T06:07:40;-0.90;27.40
52621;DHT22;38515;53.160;6.990;2024-01-07T06:10:06;-0.80;99.90
52621;DHT22;38515;53.160;6.990;2024-01-07T06:12:31;-1.20;28.40
52621;DHT22;38515;53.160;6.990;2024-01-07T06:14:57;-0.10;99.90
52621;DHT22;38515;53.160;6.990;2024-01-07T06:17:23;-0.30;1.00
52621;DHT22;38515;53.160;6.990;2024-01-07T06:19:49;-0.90;1.00
52621;DHT22;38515;53.160;6.990;2024-01-07T06:22:15;-2.30;99.90
52621;DHT22;38515;53.160;6.990;2024-01-07T06:24:40;-0.20;99.90
52621;DHT22;38515;53.160;6.990;2024-01-07T06:27:06;-0.30;18.10
52621;DHT22;38515;53.160;6.990;2024-01-07T06:29:31;-0.60;1.00
52621;DHT22;38515;53.160;6.990;2024-01-07T06:31:57;-0.10;99.90
52621;DHT22;38515;53.160;6.990;2024-01-07T06:34:23;-0.90;99.90
52621;DHT22;38515;53.160;6.990;2024-01-07T06:36:48;-0.90;99.90
52621;DHT22;38515;53.160;6.990;2024-01-07T06:39:14;-1.20;99.90
52621;DHT22;38515;53.160;6.990;2024-01-07T06:41:40;-0.90;99.90
52621;DHT22;38515;53.160;6.990;2024-01-07T06:44:05;-0.60;1.00
52621;DHT22;38515;53.160;6.990;2024-01-07T06:46:31;-0.80;99.90
52621;DHT22;38515;53.160;6.990;2024-01-07T06:48:59;-0.90;99.90
52621;DHT22;38515;53.160;6.990;2024-01-07T06:51:25;-0.90;99.90
52621;DHT22;38515;53.160;6.990;2024-01-07T06:53:51;-0.90;99.90
52621;DHT22;38515;53.160;6.990;2024-01-07T06:56:16;-0.90;99.90
52621;DHT22;38515;53.160;6.990;2024-01-07T06:58:43;-0.90;1.00
52621;DHT22;38515;53.160;6.990;2024-01-07T07:01:09;-1.00;1.00
52621;DHT22;38515;53.160;6.990;2024-01-07T07:03:35;-2.30;43.00
52621;DHT22;38515;53.160;6.990;2024-01-07T07:06:01;0.20;53.00
52621;DHT22;38515;53.160;6.990;2024-01-07T07:08:26;-0.90;49.10
52621;DHT22;38515;53.160;6.990;2024-01-07T07:10:52;-1.10;1.00
52621;DHT22;38515;53.160;6.990;2024-01-07T07:13:18;-1.80;1.00
52621;DHT22;38515;53.160;6.990;2024-01-07T07:15:44;-1.00;99.90
52621;DHT22;38515;53.160;6.990;2024-01-07T07:18:09;-1.30;99.90
52621;DHT22;38515;53.160;6.990;2024-01-07T07:20:35;-1.30;99.90
52621;DHT22;38515;53.160;6.990;2024-01-07T07:23:01;-1.40;99.90
52621;DHT22;38515;53.160;6.990;2024-01-07T07:25:26;-2.10;35.40
52621;DHT22;38515;53.160;6.990;2024-01-07T07:27:52;-1.00;99.90
52621;DHT22;38515;53.160;6.990;2024-01-07T07:30:18;-1.50;99.90
52621;DHT22;38515;53.160;6.990;2024-01-07T07:32:44;-1.50;99.90
52621;DHT22;38515;53.160;6.990;2024-01-07T07:35:10;-1.50;99.90
52621;DHT22;38515;53.160;6.990;2024-01-07T07:40:02;-1.60;99.90
52621;DHT22;38515;53.160;6.990;2024-01-07T07:42:28;-0.70;99.90
52621;DHT22;38515;53.160;6.990;2024-01-07T07:44:54;-1.60;99.90
52621;DHT22;38515;53.160;6.990;2024-01-07T07:47:19;-0.90;99.90
52621;DHT22;38515;53.160;6.990;2024-01-07T07:49:46;-1.70;99.90
52621;DHT22;38515;53.160;6.990;2024-01-07T07:52:11;-2.20;99.90
52621;DHT22;38515;53.160;6.990;2024-01-07T07:54:39;-1.60;99.90
52621;DHT22;38515;53.160;6.990;2024-01-07T07:57:05;-1.10;99.90
52621;DHT22;38515;53.160;6.990;2024-01-07T07:59:31;-1.50;36.20
52621;DHT22;38515;53.160;6.990;2024-01-07T08:01:57;-1.80;97.30
52621;DHT22;38515;53.160;6.990;2024-01-07T08:04:23;-1.10;1.00
52621;DHT22;38515;53.160;6.990;2024-01-07T08:06:48;-1.40;99.90
52621;DHT22;38515;53.160;6.990;2024-01-07T08:09:14;-0.70;1.00
52621;DHT22;38515;53.160;6.990;2024-01-07T08:11:40;-3.40;1.00
52621;DHT22;38515;53.160;6.990;2024-01-07T08:14:05;-1.20;99.90
52621;DHT22;38515;53.160;6.990;2024-01-07T08:16:32;-1.60;1.00
52621;DHT22;38515;53.160;6.990;2024-01-07T08:18:57;-1.20;21.80
52621;DHT22;38515;53.160;6.990;2024-01-07T08:21:23;-1.20;1.00
52621;DHT22;38515;53.160;6.990;2024-01-07T08:23:50;-1.20;82.70
52621;DHT22;38515;53.160;6.990;2024-01-07T08:26:19;-1.10;1.00
52621;DHT22;38515;53.160;6.990;2024-01-07T08:28:45;-2.30;75.20
52621;DHT22;38515;53.160;6.990;2024-01-07T08:31:11;-1.30;27.70
52621;DHT22;38515;53.160;6.990;2024-01-07T08:33:36;-1.00;1.00
52621;DHT22;38515;53.160;6.990;2024-01-07T08:36:02;-1.00;99.90
52621;DHT22;38515;53.160;6.990;2024-01-07T08:38:27;-1.00;99.90
52621;DHT22;38515;53.160;6.990;2024-01-07T08:40:53;-1.70;99.90
52621;DHT22;38515;53.160;6.990;2024-01-07T08:43:19;-0.90;99.90
52621;DHT22;38515;53.160;6.990;2024-01-07T08:45:44;-0.90;99.90
52621;DHT22;38515;53.160;6.990;2024-01-07T08:48:10;-0.70;99.90
52621;DHT22;38515;53.160;6.990;2024-01-07T08:50:38;-0.80;99.90
52621;DHT22;38515;53.160;6.990;2024-01-07T08:53:04;-0.80;99.90
52621;DHT22;38515;53.160;6.990;2024-01-07T08:55:30;-0.70;99.90
52621;DHT22;38515;53.160;6.990;2024-01-07T08:57:56;-0.80;58.30
52621;DHT22;38515;53.160;6.990;2024-01-07T09:00:22;-0.70;99.90
52621;DHT22;38515;53.160;6.990;2024-01-07T09:02:51;-0.70;99.90
52621;DHT22;38515;53.160;6.990;2024-01-07T09:05:17;-0.80;99.90
52621;DHT22;38515;53.160;6.990;2024-01-07T09:07:46;-0.70;34.80
52621;DHT22;38515;53.160;6.990;2024-01-07T09:10:11;-0.60;99.90
52621;DHT22;38515;53.160;6.990;2024-01-07T09:12:41;-0.60;62.00
52621;DHT22;38515;53.160;6.990;2024-01-07T09:15:07;0.30;1.00
52621;DHT22;38515;53.160;6.990;2024-01-07T09:17:37;-0.40;1.00
52621;DHT22;38515;53.160;6.990;2024-01-07T09:20:04;-0.50;1.00
52621;DHT22;38515;53.160;6.990;2024-01-07T09:22:32;-0.40;1.00
52621;DHT22;38515;53.160;6.990;2024-01-07T09:24:58;-0.40;1.00
52621;DHT22;38515;53.160;6.990;2024-01-07T09:27:24;-0.80;1.00
52621;DHT22;38515;53.160;6.990;2024-01-07T09:29:49;-0.30;99.90
52621;DHT22;38515;53.160;6.990;2024-01-07T09:32:15;0.10;99.90
52621;DHT22;38515;53.160;6.990;2024-01-07T09:37:07;1.10;99.90
52621;DHT22;38515;53.160;6.990;2024-01-07T09:39:39;1.80;99.90
52621;DHT22;38515;53.160;6.990;2024-01-07T09:42:16;-0.30;99.90
52621;DHT22;38515;53.160;6.990;2024-01-07T09:44:42;-0.30;35.80
52621;DHT22;38515;53.160;6.990;2024-01-07T09:47:14;-0.20;86.40
52621;DHT22;38515;53.160;6.990;2024-01-07T09:49:41;-0.20;90.10
52621;DHT22;38515;53.160;6.990;2024-01-07T09:52:09;-1.10;99.90
52621;DHT22;38515;53.160;6.990;2024-01-07T09:54:39;-0.10;98.60
52621;DHT22;38515;53.160;6.990;2024-01-07T09:57:06;-0.10;99.90
52621;DHT22;38515;53.160;6.990;2024-01-07T09:59:32;-0.10;99.90
52621;DHT22;38515;53.160;6.990;2024-01-07T10:01:58;0.30;99.90
52621;DHT22;38515;53.160;6.990;2024-01-07T10:04:24;0.20;99.90
52621;DHT22;38515;53.160;6.990;2024-01-07T10:06:51;-0.10;99.90
52621;DHT22;38515;53.160;6.990;2024-01-07T10:09:18;1.20;69.40
52621;DHT22;38515;53.160;6.990;2024-01-07T10:11:46;2.00;88.90
52621;DHT22;38515;53.160;6.990;2024-01-07T10:14:12;0.10;1.00
52621;DHT22;38515;53.160;6.990;2024-01-07T10:16:39;0.20;1.00
52621;DHT22;38515;53.160;6.990;2024-01-07T10:19:05;1.40;1.00
52621;DHT22;38515;53.160;6.990;2024-01-07T10:21:30;0.60;1.00
52621;DHT22;38515;53.160;6.990;2024-01-07T10:24:12;-0.30;1.00
52621;DHT22;38515;53.160;6.990;2024-01-07T10:26:39;0.40;99.90
52621;DHT22;38515;53.160;6.990;2024-01-07T10:29:06;1.70;99.90
52621;DHT22;38515;53.160;6.990;2024-01-07T10:31:32;0.60;1.00
52621;DHT22;38515;53.160;6.990;2024-01-07T10:33:58;0.40;1.00
52621;DHT22;38515;53.160;6.990;2024-01-07T10:36:24;0.40;1.00
52621;DHT22;38515;53.160;6.990;2024-01-07T10:38:51;1.20;1.00
52621;DHT22;38515;53.160;6.990;2024-01-07T10:41:20;0.40;99.90
52621;DHT22;38515;53.160;6.990;2024-01-07T10:43:49;0.50;99.90
52621;DHT22;38515;53.160;6.990;2024-01-07T10:46:16;0.70;4.40
52621;DHT22;38515;53.160;6.990;2024-01-07T10:48:55;1.40;51.20
52621;DHT22;38515;53.160;6.990;2024-01-07T10:51:24;0.70;74.10
52621;DHT22;38515;53.160;6.990;2024-01-07T10:53:53;0.70;38.30
52621;DHT22;38515;53.160;6.990;2024-01-07T10:56:29;0.40;99.90
52621;DHT22;38515;53.160;6.990;2024-01-07T10:58:58;0.60;99.90
52621;DHT22;38515;53.160;6.990;2024-01-07T11:01:25;0.60;56.10
52621;DHT22;38515;53.160;6.990;2024-01-07T11:04:00;0.80;99.90
52621;DHT22;38515;53.160;6.990;2024-01-07T11:06:36;0.80;99.90
52621;DHT22;38515;53.160;6.990;2024-01-07T11:11:59;1.00;99.90
52621;DHT22;38515;53.160;6.990;2024-01-07T11:14:41;1.70;99.90
52621;DHT22;38515;53.160;6.990;2024-01-07T11:17:11;1.20;99.90
52621;DHT22;38515;53.160;6.990;2024-01-07T11:19:48;1.20;99.90
52621;DHT22;38515;53.160;6.990;2024-01-07T11:22:27;1.10;99.90
52621;DHT22;38515;53.160;6.990;2024-01-07T11:24:54;1.00;99.90
52621;DHT22;38515;53.160;6.990;2024-01-07T11:27:22;1.00;99.90
52621;DHT22;38515;53.160;6.990;2024-01-07T11:29:55;1.10;99.90
52621;DHT22;38515;53.160;6.990;2024-01-07T11:32:33;1.10;99.90
52621;DHT22;38515;53.160;6.990;2024-01-07T11:35:00;1.10;1.00
52621;DHT22;38515;53.160;6.990;2024-01-07T11:37:28;1.10;1.00
52621;DHT22;38515;53.160;6.990;2024-01-07T11:39:57;1.10;1.00
52621;DHT22;38515;53.160;6.990;2024-01-07T11:42:23;1.10;1.00
52621;DHT22;38515;53.160;6.990;2024-01-07T11:44:55;1.10;1.00
52621;DHT22;38515;53.160;6.990;2024-01-07T11:47:23;1.20;1.00
52621;DHT22;38515;53.160;6.990;2024-01-07T11:49:49;1.50;1.00
52621;DHT22;38515;53.160;6.990;2024-01-07T11:52:15;1.70;99.90
52621;DHT22;38515;53.160;6.990;2024-01-07T11:54:41;1.70;99.90
52621;DHT22;38515;53.160;6.990;2024-01-07T11:57:08;1.60;99.90
52621;DHT22;38515;53.160;6.990;2024-01-07T11:59:34;2.10;95.20
52621;DHT22;38515;53.160;6.990;2024-01-07T12:02:00;3.40;1.00
52621;DHT22;38515;53.160;6.990;2024-01-07T12:04:27;2.00;1.00
52621;DHT22;38515;53.160;6.990;2024-01-07T12:06:53;3.10;99.90
52621;DHT22;38515;53.160;6.990;2024-01-07T12:09:19;2.00;1.00
52621;DHT22;38515;53.160;6.990;2024-01-07T12:11:45;1.80;99.90
52621;DHT22;38515;53.160;6.990;2024-01-07T12:14:11;2.10;99.90
52621;DHT22;38515;53.160;6.990;2024-01-07T12:16:37;1.40;99.90
52621;DHT22;38515;53.160;6.990;2024-01-07T12:19:03;1.30;99.90
52621;DHT22;38515;53.160;6.990;2024-01-07T12:21:29;1.30;99.90
52621;DHT22;38515;53.160;6.990;2024-01-07T12:23:55;2.20;1.00
52621;DHT22;38515;53.160;6.990;2024-01-07T12:26:26;1.60;1.00
52621;DHT22;38515;53.160;6.990;2024-01-07T12:28:57;1.70;1.00
52621;DHT22;38515;53.160;6.990;2024-01-07T12:31:26;2.00;99.90
52621;DHT22;38515;53.160;6.990;2024-01-07T12:33:52;1.70;99.90
52621;DHT22;38515;53.160;6.990;2024-01-07T12:36:22;1.70;99.90
52621;DHT22;38515;53.160;6.990;2024-01-07T12:38:48;1.80;99.90
52621;DHT22;38515;53.160;6.990;2024-01-07T12:41:14;1.90;99.90
52621;DHT22;38515;53.160;6.990;2024-01-07T12:43:40;2.10;99.90
52621;DHT22;38515;53.160;6.990;2024-01-07T12:46:06;2.20;99.90
52621;DHT22;38515;53.160;6.990;2024-01-07T12:48:32;2.60;99.90
52621;DHT22;38515;53.160;6.990;2024-01-07T12:50:59;2.20;99.90
52621;DHT22;38515;53.160;6.990;2024-01-07T12:53:25;2.60;99.90
52621;DHT22;38515;53.160;6.990;2024-01-07T12:55:50;2.10;99.90
52621;DHT22;38515;53.160;6.990;2024-01-07T12:58:16;2.00;99.90
52621;DHT22;38515;53.160;6.990;2024-01-07T13:00:43;1.90;99.90
52621;DHT22;38515;53.160;6.990;2024-01-07T13:03:10;1.80;1.00
52621;DHT22;38515;53.160;6.990;2024-01-07T13:05:45;1.70;1.00
52621;DHT22;38515;53.160;6.990;2024-01-07T13:08:14;1.90;1.00
52621;DHT22;38515;53.160;6.990;2024-01-07T13:10:40;1.60;99.90
52621;DHT22;38515;53.160;6.990;2024-01-07T13:13:05;1.90;99.90
52621;DHT22;38515;53.160;6.990;2024-01-07T13:15:31;1.90;99.90
52621;DHT22;38515;53.160;6.990;2024-01-07T13:17:57;1.30;45.00
52621;DHT22;38515;53.160;6.990;2024-01-07T13:20:23;0.90;1.00
52621;DHT22;38515;53.160;6.990;2024-01-07T13:22:49;0.90;1.00
52621;DHT22;38515;53.160;6.990;2024-01-07T13:25:15;1.70;74.20
52621;DHT22;38515;53.160;6.990;2024-01-07T13:27:41;0.60;99.90
52621;DHT22;38515;53.160;6.990;2024-01-07T13:30:08;0.50;99.90
52621;DHT22;38515;53.160;6.990;2024-01-07T13:32:35;0.40;99.90
52621;DHT22;38515;53.160;6.990;2024-01-07T13:35:04;0.40;1.00
52621;DHT22;38515;53.160;6.990;2024-01-07T13:37:29;-1.10;99.90
52621;DHT22;38515;53.160;6.990;2024-01-07T13:39:56;1.70;99.90
52621;DHT22;38515;53.160;6.990;2024-01-07T13:42:22;0.80;78.70
52621;DHT22;38515;53.160;6.990;2024-01-07T13:44:48;1.00;1.00
52621;DHT22;38515;53.160;6.990;2024-01-07T13:47:14;1.50;99.90
52621;DHT22;38515;53.160;6.990;2024-01-07T13:49:42;1.10;35.60
52621;DHT22;38515;53.160;6.990;2024-01-07T13:52:10;1.10;1.00
52621;DHT22;38515;53.160;6.990;2024-01-07T13:54:36;1.10;1.00
52621;DHT22;38515;53.160;6.990;2024-01-07T13:57:03;0.90;99.90
52621;DHT22;38515;53.160;6.990;2024-01-07T13:59:29;0.80;99.90
52621;DHT22;38515;53.160;6.990;2024-01-07T14:01:55;0.90;99.90
52621;DHT22;38515;53.160;6.990;2024-01-07T14:04:23;1.00;1.00
52621;DHT22;38515;53.160;6.990;2024-01-07T14:06:56;1.00;1.00
52621;DHT22;38515;53.160;6.990;2024-01-07T14:09:22;1.00;1.00
52621;DHT22;38515;53.160;6.990;2024-01-07T14:11:48;1.30;1.00
52621;DHT22;38515;53.160;6.990;2024-01-07T14:14:14;0.90;1.00
52621;DHT22;38515;53.160;6.990;2024-01-07T14:16:40;0.80;1.00
52621;DHT22;38515;53.160;6.990;2024-01-07T14:19:06;0.40;99.90
52621;DHT22;38515;53.160;6.990;2024-01-07T14:21:32;0.70;99.90
52621;DHT22;38515;53.160;6.990;2024-01-07T14:23:58;0.50;1.00
52621;DHT22;38515;53.160;6.990;2024-01-07T14:26:24;0.40;1.00
52621;DHT22;38515;53.160;6.990;2024-01-07T14:28:50;0.30;1.00
52621;DHT22;38515;53.160;6.990;2024-01-07T14:31:19;0.50;1.00
52621;DHT22;38515;53.160;6.990;2024-01-07T14:33:44;0.40;1.00
52621;DHT22;38515;53.160;6.990;2024-01-07T14:36:10;0.30;1.00
52621;DHT22;38515;53.160;6.990;2024-01-07T14:38:45;0.60;1.00
52621;DHT22;38515;53.160;6.990;2024-01-07T14:41:14;1.40;60.60
52621;DHT22;38515;53.160;6.990;2024-01-07T14:43:40;0.00;99.90
52621;DHT22;38515;53.160;6.990;2024-01-07T14:46:09;0.00;48.30
52621;DHT22;38515;53.160;6.990;2024-01-07T14:48:35;0.50;1.00
52621;DHT22;38515;53.160;6.990;2024-01-07T14:51:01;-0.10;23.10
52621;DHT22;38515;53.160;6.990;2024-01-07T14:53:27;-0.20;99.90
52621;DHT22;38515;53.160;6.990;2024-01-07T14:55:56;-0.20;99.90
52621;DHT22;38515;53.160;6.990;2024-01-07T14:58:24;-0.20;99.90
52621;DHT22;38515;53.160;6.990;2024-01-07T15:00:50;-0.90;99.90
52621;DHT22;38515;53.160;6.990;2024-01-07T15:03:16;-0.20;1.00
52621;DHT22;38515;53.160;6.990;2024-01-07T15:05:42;-0.30;99.90
52621;DHT22;38515;53.160;6.990;2024-01-07T15:08:08;-0.30;99.90
52621;DHT22;38515;53.160;6.990;2024-01-07T15:10:38;-0.40;99.90
52621;DHT22;38515;53.160;6.990;2024-01-07T15:13:04;-0.50;99.90
52621;DHT22;38515;53.160;6.990;2024-01-07T15:15:29;0.30;6.70
52621;DHT22;38515;53.160;6.990;2024-01-07T15:17:56;-1.10;99.90
52621;DHT22;38515;53.160;6.990;2024-01-07T15:20:22;-0.70;99.90
52621;DHT22;38515;53.160;6.990;2024-01-07T15:22:49;-0.90;99.90
52621;DHT22;38515;53.160;6.990;2024-01-07T15:25:16;-0.60;99.90
52621;DHT22;38515;53.160;6.990;2024-01-07T15:27:42;-0.80;99.90
52621;DHT22;38515;53.160;6.990;2024-01-07T15:30:09;-0.60;99.90
52621;DHT22;38515;53.160;6.990;2024-01-07T15:32:35;0.10;99.90
52621;DHT22;38515;53.160;6.990;2024-01-07T15:35:00;-1.00;99.90
52621;DHT22;38515;53.160;6.990;2024-01-07T15:37:26;-1.00;99.90
52621;DHT22;38515;53.160;6.990;2024-01-07T15:39:51;-1.30;99.90
52621;DHT22;38515;53.160;6.990;2024-01-07T15:42:19;-1.20;95.70
52621;DHT22;38515;53.160;6.990;2024-01-07T15:44:45;0.10;99.90
52621;DHT22;38515;53.160;6.990;2024-01-07T15:47:11;-1.30;1.00